createdAt,value
2019-03-31T00:01:39.331Z,7.40
2019-03-31T00:04:05.444Z,7.30
2019-03-31T00:06:31.630Z,7.30
2019-03-31T00:08:57.700Z,7.30
2019-03-31T00:11:23.838Z,7.30
2019-03-31T00:13:49.908Z,7.30
2019-03-31T00:16:15.966Z,7.30
2019-03-31T00:18:42.037Z,7.30
2019-03-31T00:21:08.243Z,7.20
2019-03-31T00:23:34.417Z,7.20
2019-03-31T00:26:00.499Z,7.10
2019-03-31T00:28:26.564Z,7.00
2019-03-31T00:30:53.248Z,6.90
2019-03-31T00:33:19.380Z,6.90
2019-03-31T00:35:45.546Z,6.80
2019-03-31T00:38:11.718Z,6.80
2019-03-31T00:40:37.787Z,6.70
2019-03-31T00:43:03.884Z,6.70
2019-03-31T00:45:30.084Z,6.60
2019-03-31T00:47:56.240Z,6.50
2019-03-31T00:50:22.337Z,6.50
2019-03-31T00:52:48.433Z,6.40
2019-03-31T00:55:14.508Z,6.40
2019-03-31T00:57:40.600Z,6.30
2019-03-31T01:00:10.012Z,6.30
2019-03-31T01:02:36.187Z,6.30
2019-03-31T01:05:05.265Z,6.20
2019-03-31T01:07:31.490Z,6.20
2019-03-31T01:09:57.952Z,6.20
2019-03-31T01:12:25.055Z,6.20
2019-03-31T01:14:51.199Z,6.20
2019-03-31T01:17:19.115Z,6.20
2019-03-31T01:19:45.372Z,6.10
2019-03-31T01:22:11.533Z,6.10
2019-03-31T01:24:37.765Z,6.10
2019-03-31T01:27:07.572Z,6.00
2019-03-31T01:29:33.737Z,6.00
2019-03-31T01:31:59.929Z,6.00
2019-03-31T01:34:26.240Z,6.00
2019-03-31T01:36:52.441Z,5.90
2019-03-31T01:39:18.895Z,5.90
2019-03-31T01:41:44.972Z,5.80
2019-03-31T01:44:11.357Z,5.80
2019-03-31T01:46:37.481Z,5.70
2019-03-31T01:49:04.461Z,5.70
2019-03-31T01:51:30.722Z,5.70
2019-03-31T01:53:56.811Z,5.70
2019-03-31T01:56:23.482Z,5.70
2019-03-31T01:58:49.580Z,5.60
2019-03-31T02:01:17.367Z,5.60
2019-03-31T02:03:43.566Z,5.60
2019-03-31T02:06:09.836Z,5.60
2019-03-31T02:08:35.909Z,5.50
2019-03-31T02:11:02.047Z,5.50
2019-03-31T02:13:28.140Z,5.40
2019-03-31T02:15:54.203Z,5.40
2019-03-31T02:18:20.303Z,5.30
2019-03-31T02:20:46.380Z,5.30
2019-03-31T02:23:12.461Z,5.30
2019-03-31T02:25:38.627Z,5.30
2019-03-31T02:28:04.709Z,5.20
2019-03-31T02:30:30.908Z,5.20
2019-03-31T02:32:57.061Z,5.20
2019-03-31T02:35:24.001Z,5.20
2019-03-31T02:37:50.060Z,5.20
2019-03-31T02:40:16.236Z,5.10
2019-03-31T02:42:42.333Z,5.10
2019-03-31T02:45:08.610Z,5.10
2019-03-31T02:47:34.686Z,5.10
2019-03-31T02:50:00.866Z,5.10
2019-03-31T02:52:27.023Z,5.00
2019-03-31T02:54:53.203Z,5.00
2019-03-31T02:57:20.582Z,5.00
2019-03-31T02:59:49.306Z,5.00
2019-03-31T03:02:15.870Z,5.00
2019-03-31T03:04:42.141Z,4.90
2019-03-31T03:07:10.828Z,4.90
2019-03-31T03:09:38.273Z,4.90
2019-03-31T03:12:07.959Z,4.90
2019-03-31T03:14:36.765Z,4.80
2019-03-31T03:17:02.941Z,4.80
2019-03-31T03:19:29.157Z,4.80
2019-03-31T03:21:55.358Z,4.80
2019-03-31T03:24:21.432Z,4.80
2019-03-31T03:26:47.610Z,4.80
2019-03-31T03:29:13.779Z,4.80
2019-03-31T03:31:39.880Z,4.70
2019-03-31T03:34:06.079Z,4.70
2019-03-31T03:36:32.293Z,4.70
2019-03-31T03:38:58.440Z,4.70
2019-03-31T03:41:24.511Z,4.70
2019-03-31T03:43:56.015Z,4.70
2019-03-31T03:46:18.677Z,4.70
2019-03-31T03:48:44.734Z,4.70
2019-03-31T03:51:11.023Z,4.70
2019-03-31T03:53:37.212Z,4.60
2019-03-31T03:56:03.404Z,4.60
2019-03-31T03:58:29.591Z,4.60
2019-03-31T04:00:55.754Z,4.60
2019-03-31T04:03:30.823Z,4.50
2019-03-31T04:05:49.915Z,4.50
2019-03-31T04:08:16.014Z,4.50
2019-03-31T04:10:46.019Z,4.50
2019-03-31T04:13:12.505Z,4.40
2019-03-31T04:15:38.872Z,4.40
2019-03-31T04:18:04.992Z,4.40
2019-03-31T04:20:31.235Z,4.40
2019-03-31T04:22:57.361Z,4.30
2019-03-31T04:25:23.550Z,4.30
2019-03-31T04:27:49.639Z,4.30
2019-03-31T04:30:15.729Z,4.30
2019-03-31T04:32:41.826Z,4.30
2019-03-31T04:35:07.923Z,4.20
2019-03-31T04:37:34.002Z,4.20
2019-03-31T04:40:00.535Z,4.10
2019-03-31T04:42:26.839Z,4.00
2019-03-31T04:44:52.928Z,4.00
2019-03-31T04:47:19.087Z,4.00
2019-03-31T04:49:45.218Z,4.00
2019-03-31T04:52:11.398Z,3.90
2019-03-31T04:54:37.448Z,3.90
2019-03-31T04:57:04.643Z,3.90
2019-03-31T04:59:31.042Z,3.90
2019-03-31T05:01:57.125Z,3.80
2019-03-31T05:04:23.270Z,3.80
2019-03-31T05:06:49.388Z,3.80
2019-03-31T05:09:15.461Z,3.80
2019-03-31T05:11:41.671Z,3.70
2019-03-31T05:14:07.836Z,3.80
2019-03-31T05:16:33.961Z,3.70
2019-03-31T05:19:00.064Z,3.80
2019-03-31T05:21:26.163Z,3.70
2019-03-31T05:23:52.242Z,3.80
2019-03-31T05:26:18.306Z,3.80
2019-03-31T05:28:44.420Z,3.80
2019-03-31T05:31:10.704Z,3.80
2019-03-31T05:33:36.880Z,3.80
2019-03-31T05:36:03.058Z,3.80
2019-03-31T05:38:29.245Z,3.90
2019-03-31T05:40:55.338Z,3.90
2019-03-31T05:43:21.435Z,3.90
2019-03-31T05:45:47.527Z,3.90
2019-03-31T05:48:13.604Z,4.00
2019-03-31T05:50:39.692Z,4.00
2019-03-31T05:53:06.061Z,4.00
2019-03-31T05:55:32.152Z,4.10
2019-03-31T05:57:58.277Z,4.10
2019-03-31T06:00:29.886Z,4.20
2019-03-31T06:02:55.949Z,4.30
2019-03-31T06:05:22.027Z,4.30
2019-03-31T06:07:48.099Z,4.40
2019-03-31T06:10:14.173Z,4.40
2019-03-31T06:12:40.370Z,4.50
2019-03-31T06:15:06.764Z,4.60
2019-03-31T06:17:32.861Z,4.60
2019-03-31T06:19:58.939Z,4.70
2019-03-31T06:22:25.055Z,4.80
2019-03-31T06:24:51.140Z,4.90
2019-03-31T06:27:17.219Z,5.00
2019-03-31T06:29:43.302Z,5.10
2019-03-31T06:32:09.368Z,5.10
2019-03-31T06:34:46.733Z,5.20
2019-03-31T06:37:03.465Z,5.30
2019-03-31T06:39:29.543Z,5.40
2019-03-31T06:41:55.641Z,5.50
2019-03-31T06:44:21.730Z,5.60
2019-03-31T06:46:47.820Z,5.70
2019-03-31T06:49:13.924Z,5.80
2019-03-31T06:51:39.995Z,5.90
2019-03-31T06:54:06.211Z,6.00
2019-03-31T06:56:32.313Z,6.10
2019-03-31T06:58:58.528Z,6.20
2019-03-31T07:01:24.781Z,6.30
2019-03-31T07:03:50.879Z,6.40
2019-03-31T07:06:16.948Z,6.50
2019-03-31T07:08:43.145Z,6.70
2019-03-31T07:11:09.204Z,6.70
2019-03-31T07:13:35.276Z,6.80
2019-03-31T07:16:01.363Z,6.90
2019-03-31T07:18:27.453Z,7.00
2019-03-31T07:20:54.378Z,7.20
2019-03-31T07:23:20.468Z,7.30
2019-03-31T07:25:46.544Z,7.40
2019-03-31T07:28:12.645Z,7.60
2019-03-31T07:30:38.700Z,7.60
2019-03-31T07:33:04.789Z,7.70
2019-03-31T07:35:30.981Z,7.80
2019-03-31T07:37:57.048Z,7.90
2019-03-31T07:40:23.458Z,8.00
2019-03-31T07:42:52.921Z,8.10
2019-03-31T07:45:19.274Z,8.20
2019-03-31T07:47:45.362Z,8.30
2019-03-31T07:50:15.870Z,8.40
2019-03-31T07:52:42.035Z,8.60
2019-03-31T07:55:09.855Z,8.60
2019-03-31T07:57:36.119Z,8.70
2019-03-31T08:00:24.616Z,8.90
2019-03-31T08:02:51.928Z,9.00
2019-03-31T08:05:32.473Z,9.20
2019-03-31T08:07:47.342Z,9.20
2019-03-31T08:10:14.289Z,9.30
2019-03-31T08:12:40.916Z,9.40
2019-03-31T08:15:08.528Z,9.40
2019-03-31T08:17:34.622Z,9.60
2019-03-31T08:20:00.818Z,9.80
2019-03-31T08:22:50.353Z,9.70
2019-03-31T08:25:18.559Z,9.90
2019-03-31T08:27:44.641Z,10.00
2019-03-31T08:30:12.887Z,10.10
2019-03-31T08:32:39.815Z,10.40
2019-03-31T08:35:08.052Z,10.50
2019-03-31T08:37:34.235Z,10.60
2019-03-31T08:40:01.471Z,10.60
2019-03-31T08:42:27.916Z,10.60
2019-03-31T08:44:54.025Z,10.80
2019-03-31T08:47:20.409Z,10.90
2019-03-31T08:49:46.862Z,11.00
2019-03-31T08:52:13.018Z,11.20
2019-03-31T08:54:39.105Z,11.40
2019-03-31T08:57:05.304Z,11.60
2019-03-31T08:59:31.366Z,11.60
2019-03-31T09:01:57.541Z,11.80
2019-03-31T09:04:23.653Z,11.90
2019-03-31T09:06:49.726Z,12.00
2019-03-31T09:09:15.899Z,12.20
2019-03-31T09:11:41.967Z,12.40
2019-03-31T09:14:08.033Z,12.50
2019-03-31T09:16:34.123Z,12.60
2019-03-31T09:19:00.212Z,12.70
2019-03-31T09:21:26.312Z,12.80
2019-03-31T09:23:52.396Z,12.90
2019-03-31T09:26:18.477Z,13.00
2019-03-31T09:28:44.650Z,13.00
2019-03-31T09:31:10.710Z,13.10
2019-03-31T09:33:39.288Z,13.20
2019-03-31T09:36:15.619Z,13.40
2019-03-31T09:38:32.746Z,13.40
2019-03-31T09:40:58.823Z,13.60
2019-03-31T09:43:24.896Z,13.70
2019-03-31T09:45:50.968Z,13.60
2019-03-31T09:48:17.077Z,13.80
2019-03-31T09:50:43.198Z,13.90
2019-03-31T09:53:09.280Z,14.10
2019-03-31T09:55:35.368Z,14.20
2019-03-31T09:58:01.419Z,14.30
2019-03-31T10:00:31.312Z,14.40
2019-03-31T10:02:57.409Z,14.50
2019-03-31T10:05:23.512Z,14.70
2019-03-31T10:07:49.755Z,14.70
2019-03-31T10:10:30.427Z,14.70
2019-03-31T10:12:56.594Z,14.80
2019-03-31T10:15:22.681Z,14.90
2019-03-31T10:17:48.774Z,15.00
2019-03-31T10:20:14.852Z,15.00
2019-03-31T10:22:40.941Z,15.10
2019-03-31T10:25:07.403Z,15.20
2019-03-31T10:27:33.512Z,15.30
2019-03-31T10:29:59.596Z,15.30
2019-03-31T10:32:25.671Z,15.40
2019-03-31T10:34:51.751Z,15.60
2019-03-31T10:37:17.827Z,15.70
2019-03-31T10:39:43.899Z,15.60
2019-03-31T10:42:09.970Z,15.50
2019-03-31T10:44:36.062Z,15.60
2019-03-31T10:47:02.152Z,15.80
2019-03-31T10:49:28.222Z,16.10
2019-03-31T10:51:54.297Z,16.00
2019-03-31T10:54:20.489Z,15.90
2019-03-31T10:56:47.660Z,16.10
2019-03-31T10:59:14.411Z,16.00
2019-03-31T11:01:41.339Z,16.20
2019-03-31T11:04:07.410Z,16.30
2019-03-31T11:06:33.912Z,16.40
2019-03-31T11:08:59.973Z,16.60
2019-03-31T11:11:26.405Z,16.60
2019-03-31T11:13:52.724Z,16.80
2019-03-31T11:16:19.409Z,16.90
2019-03-31T11:18:47.035Z,17.00
2019-03-31T11:21:15.233Z,17.10
2019-03-31T11:23:41.850Z,17.30
2019-03-31T11:26:08.340Z,17.40
2019-03-31T11:28:34.433Z,17.30
2019-03-31T11:31:00.563Z,17.60
2019-03-31T11:33:26.667Z,17.60
2019-03-31T11:35:53.020Z,17.70
2019-03-31T11:38:19.116Z,17.70
2019-03-31T11:40:45.284Z,17.70
2019-03-31T11:43:11.479Z,17.80
2019-03-31T11:45:37.565Z,17.70
2019-03-31T11:48:03.637Z,17.50
2019-03-31T11:50:29.743Z,17.70
2019-03-31T11:52:55.808Z,17.70
2019-03-31T11:55:21.981Z,18.10
2019-03-31T11:57:48.149Z,18.10
2019-03-31T12:00:19.693Z,18.20
2019-03-31T12:02:45.944Z,18.40
2019-03-31T12:05:12.813Z,18.50
2019-03-31T12:07:46.724Z,18.50
2019-03-31T12:10:07.485Z,18.30
2019-03-31T12:12:33.593Z,18.20
2019-03-31T12:15:00.894Z,18.10
2019-03-31T12:17:27.615Z,18.20
2019-03-31T12:19:54.033Z,18.10
2019-03-31T12:22:20.166Z,18.00
2019-03-31T12:24:46.260Z,18.20
2019-03-31T12:27:12.350Z,18.40
2019-03-31T12:29:38.473Z,18.60
2019-03-31T12:32:04.732Z,18.70
2019-03-31T12:34:30.820Z,18.80
2019-03-31T12:36:56.883Z,18.90
2019-03-31T12:39:22.978Z,19.00
2019-03-31T12:41:49.038Z,18.90
2019-03-31T12:44:15.130Z,18.80
2019-03-31T12:46:41.327Z,18.50
2019-03-31T12:49:07.460Z,18.20
2019-03-31T12:51:33.655Z,18.10
2019-03-31T12:53:59.808Z,18.30
2019-03-31T12:56:25.940Z,18.50
2019-03-31T12:58:52.005Z,18.80
2019-03-31T13:01:18.208Z,19.00
2019-03-31T13:03:44.276Z,19.30
2019-03-31T13:06:10.356Z,19.30
2019-03-31T13:08:36.404Z,19.20
2019-03-31T13:11:02.517Z,19.10
2019-03-31T13:13:28.587Z,19.20
2019-03-31T13:15:54.743Z,19.40
2019-03-31T13:18:20.880Z,19.30
2019-03-31T13:20:47.486Z,19.30
2019-03-31T13:23:13.584Z,19.50
2019-03-31T13:25:39.664Z,19.60
2019-03-31T13:28:06.030Z,19.80
2019-03-31T13:30:32.217Z,19.80
2019-03-31T13:32:58.407Z,19.80
2019-03-31T13:35:24.491Z,19.70
2019-03-31T13:37:50.583Z,19.60
2019-03-31T13:40:16.756Z,19.70
2019-03-31T13:42:42.868Z,19.90
2019-03-31T13:45:09.458Z,20.20
2019-03-31T13:47:35.636Z,20.70
2019-03-31T13:50:03.917Z,20.80
2019-03-31T13:52:29.996Z,20.90
2019-03-31T13:54:56.079Z,21.20
2019-03-31T17:20:15.490Z,19.80
2019-03-31T17:22:41.571Z,19.50
2019-03-31T17:25:08.548Z,19.30
2019-03-31T17:27:35.374Z,19.30
2019-03-31T17:30:03.578Z,19.10
2019-03-31T17:32:30.120Z,18.70
2019-03-31T17:34:56.939Z,18.50
2019-03-31T17:37:23.283Z,18.40
2019-03-31T17:39:49.339Z,18.30
2019-03-31T17:42:15.446Z,18.10
2019-03-31T17:47:08.080Z,17.90
2019-03-31T17:49:34.168Z,17.60
2019-03-31T17:52:01.417Z,17.40
2019-03-31T17:54:27.891Z,17.30
2019-03-31T17:56:54.017Z,17.30
2019-03-31T17:59:20.091Z,17.20
2019-03-31T18:01:46.284Z,17.00
2019-03-31T18:04:12.819Z,16.90
2019-03-31T18:06:38.961Z,16.90
2019-03-31T18:09:07.590Z,16.90
2019-03-31T18:11:33.797Z,16.90
2019-03-31T18:13:59.891Z,16.80
2019-03-31T18:16:25.989Z,16.70
2019-03-31T18:18:52.059Z,16.70
2019-03-31T18:21:18.166Z,16.80
2019-03-31T18:23:44.266Z,16.80
2019-03-31T18:26:10.378Z,16.70
2019-03-31T18:28:36.468Z,16.60
2019-03-31T18:31:02.669Z,16.50
2019-03-31T18:33:28.826Z,16.30
2019-03-31T18:35:55.245Z,16.20
2019-03-31T18:38:21.342Z,16.30
2019-03-31T18:40:47.512Z,16.20
2019-03-31T18:43:13.676Z,16.00
2019-03-31T18:45:39.876Z,15.90
2019-03-31T18:48:05.995Z,15.70
2019-03-31T18:50:32.231Z,15.70
2019-03-31T18:52:58.795Z,15.60
2019-03-31T18:55:26.796Z,15.60
2019-03-31T18:57:54.787Z,15.40
2019-03-31T19:00:22.906Z,15.50
2019-03-31T19:03:07.645Z,15.50
2019-03-31T19:05:47.715Z,15.60
2019-03-31T19:08:25.056Z,15.40
2019-03-31T19:11:05.425Z,15.50
2019-03-31T19:13:33.414Z,15.70
2019-03-31T19:16:03.907Z,15.70
2019-03-31T19:18:31.908Z,15.70
2019-03-31T19:21:11.096Z,15.80
2019-03-31T19:23:32.561Z,15.80
2019-03-31T19:26:00.729Z,15.80
2019-03-31T19:28:38.217Z,15.70
2019-03-31T19:31:08.956Z,15.70
2019-03-31T19:33:39.560Z,15.70
2019-03-31T19:36:16.912Z,15.70
2019-03-31T19:39:01.603Z,15.70
2019-03-31T19:41:46.247Z,15.60
2019-03-31T19:44:26.425Z,15.50
2019-03-31T19:46:57.419Z,15.40
2019-03-31T19:49:28.391Z,15.30
2019-03-31T19:51:59.101Z,15.30
2019-03-31T19:54:29.865Z,15.30
2019-03-31T19:56:57.842Z,15.20
2019-03-31T19:59:37.595Z,15.20
2019-03-31T20:02:08.089Z,15.10
2019-03-31T20:04:44.933Z,15.10
2019-03-31T20:07:29.485Z,15.00
2019-03-31T20:10:03.505Z,15.00
2019-03-31T20:12:44.367Z,15.00
2019-03-31T20:15:12.611Z,14.90
2019-03-31T20:17:57.321Z,14.90
2019-03-31T20:20:31.487Z,14.80
2019-03-31T20:23:11.515Z,14.70
2019-03-31T20:25:57.746Z,14.70
2019-03-31T20:28:25.764Z,14.60
2019-03-31T20:30:53.727Z,14.50
2019-03-31T20:33:27.328Z,14.40
2019-03-31T20:35:55.288Z,14.50
2019-03-31T20:38:23.263Z,14.40
2019-03-31T20:40:54.051Z,14.40
2019-03-31T20:43:22.129Z,14.40
2019-03-31T20:45:48.330Z,14.40
2019-03-31T20:48:15.423Z,14.30
2019-03-31T20:50:41.530Z,14.20
2019-03-31T20:53:07.605Z,14.20
2019-03-31T20:55:33.689Z,14.20
2019-03-31T20:57:59.745Z,14.10
2019-03-31T21:00:25.826Z,14.00
2019-03-31T21:02:51.916Z,14.00
2019-03-31T21:05:18.008Z,14.00
2019-03-31T21:07:44.176Z,13.90
2019-03-31T21:10:10.351Z,13.80
2019-03-31T21:12:36.399Z,13.80
2019-03-31T21:15:05.189Z,13.70
2019-03-31T21:17:31.248Z,13.70
2019-03-31T21:19:57.328Z,13.60
2019-03-31T21:22:23.404Z,13.60
2019-03-31T21:24:49.512Z,13.50
2019-03-31T21:27:15.588Z,13.50
2019-03-31T21:29:41.647Z,13.50
2019-03-31T21:32:07.753Z,13.50
2019-03-31T21:34:33.820Z,13.50
2019-03-31T21:36:59.888Z,13.40
2019-03-31T21:39:25.970Z,13.30
2019-03-31T21:41:52.033Z,13.30
2019-03-31T21:44:18.128Z,13.30
2019-03-31T21:46:44.211Z,13.30
2019-03-31T21:49:10.323Z,13.20
2019-03-31T21:51:36.421Z,13.20
2019-03-31T21:54:02.594Z,13.20
2019-03-31T21:56:28.674Z,13.20
2019-03-31T21:58:54.770Z,13.10
2019-03-31T22:01:20.875Z,13.10
2019-03-31T22:03:46.931Z,13.10
2019-03-31T22:06:13.041Z,13.10
2019-03-31T22:08:39.132Z,13.10
2019-03-31T22:11:05.197Z,12.90
2019-03-31T22:13:31.284Z,12.80
2019-03-31T22:15:57.347Z,12.80
2019-03-31T22:18:23.449Z,12.70
2019-03-31T22:20:49.733Z,12.60
2019-03-31T22:23:15.802Z,12.50
2019-03-31T22:25:41.900Z,12.50
2019-03-31T22:28:07.980Z,12.50
2019-03-31T22:30:34.493Z,12.60
2019-03-31T22:33:00.577Z,12.50
2019-03-31T22:35:26.635Z,12.50
2019-03-31T22:37:52.873Z,12.50
2019-03-31T22:40:18.960Z,12.40
2019-03-31T22:42:45.124Z,12.40
2019-03-31T22:45:11.414Z,12.30
2019-03-31T22:47:37.491Z,12.30
2019-03-31T22:50:04.760Z,12.30
2019-03-31T22:52:30.825Z,12.20
2019-03-31T22:54:57.018Z,12.00
2019-03-31T22:57:23.111Z,12.00
2019-03-31T22:59:49.209Z,12.00
2019-03-31T23:02:15.282Z,12.00
2019-03-31T23:04:41.456Z,12.00
2019-03-31T23:07:07.551Z,11.90
2019-03-31T23:09:34.489Z,11.90
2019-03-31T23:12:00.828Z,11.80
2019-03-31T23:14:26.915Z,11.80
2019-03-31T23:16:53.016Z,11.70
2019-03-31T23:19:19.092Z,11.70
2019-03-31T23:21:45.185Z,11.60
2019-03-31T23:24:11.250Z,11.60
2019-03-31T23:26:37.336Z,11.50
2019-03-31T23:29:03.424Z,11.50
2019-03-31T23:31:29.532Z,11.50
2019-03-31T23:33:55.608Z,11.40
2019-03-31T23:36:21.712Z,11.40
2019-03-31T23:38:47.783Z,11.40
2019-03-31T23:41:13.874Z,11.30
2019-03-31T23:43:39.944Z,11.30
2019-03-31T23:46:06.030Z,11.30
2019-03-31T23:48:32.131Z,11.30
2019-03-31T23:50:58.228Z,11.30
2019-03-31T23:53:24.292Z,11.30
2019-03-31T23:55:50.375Z,11.30
2019-03-31T23:58:16.482Z,11.30
